createdAt,value
2018-03-25T00:00:23.908Z,36.90
2018-03-25T00:02:51.448Z,37.53
2018-03-25T00:05:19.013Z,32.17
2018-03-25T00:07:46.569Z,36.60
2018-03-25T00:10:14.117Z,45.33
2018-03-25T00:12:42.440Z,38.47
2018-03-25T00:15:09.980Z,34.87
2018-03-25T00:17:37.538Z,38.43
2018-03-25T00:20:05.078Z,46.37
2018-03-25T00:22:32.642Z,41.47
2018-03-25T00:25:00.578Z,41.47
2018-03-25T00:27:29.713Z,41.23
2018-03-25T00:29:57.283Z,43.30
2018-03-25T00:32:24.833Z,38.77
2018-03-25T00:34:52.366Z,36.17
2018-03-25T00:37:20.728Z,40.47
2018-03-25T00:39:49.024Z,42.53
2018-03-25T00:42:17.341Z,44.37
2018-03-25T00:44:44.905Z,44.80
2018-03-25T00:47:12.454Z,42.57
2018-03-25T00:49:39.992Z,40.77
2018-03-25T00:52:07.543Z,35.17
2018-03-25T00:54:35.077Z,33.80
2018-03-25T00:57:02.628Z,39.70
2018-03-25T00:59:30.164Z,40.97
2018-03-25T01:01:57.700Z,42.97
2018-03-25T01:04:25.270Z,47.87
2018-03-25T01:06:52.819Z,41.70
2018-03-25T01:09:20.366Z,46.73
2018-03-25T01:11:48.665Z,47.90
2018-03-25T01:14:16.213Z,41.27
2018-03-25T01:16:43.745Z,40.37
2018-03-25T01:19:11.296Z,44.67
2018-03-25T01:21:38.836Z,43.83
2018-03-25T01:24:07.152Z,45.63
2018-03-25T01:26:34.686Z,40.03
2018-03-25T01:29:03.002Z,44.03
2018-03-25T01:31:30.549Z,38.13
2018-03-25T01:33:58.116Z,48.77
2018-03-25T01:36:25.643Z,46.20
2018-03-25T01:38:53.191Z,44.60
2018-03-25T01:41:21.500Z,41.30
2018-03-25T01:43:49.050Z,45.83
2018-03-25T01:46:16.582Z,52.10
2018-03-25T01:48:44.909Z,52.93
2018-03-25T01:51:12.449Z,48.47
2018-03-25T01:53:40.006Z,45.23
2018-03-25T01:56:07.536Z,53.77
2018-03-25T01:58:35.093Z,88.07
2018-03-25T02:01:03.398Z,66.80
2018-03-25T02:03:30.937Z,56.43
2018-03-25T02:05:58.489Z,55.80
2018-03-25T02:08:26.808Z,47.37
2018-03-25T02:10:54.362Z,52.30
2018-03-25T02:13:21.935Z,51.23
2018-03-25T02:15:49.469Z,56.17
2018-03-25T02:18:17.039Z,60.57
2018-03-25T02:20:44.583Z,60.77
2018-03-25T02:23:12.131Z,55.57
2018-03-25T02:25:39.651Z,61.37
2018-03-25T02:28:07.195Z,57.70
2018-03-25T02:30:34.746Z,52.37
2018-03-25T02:33:02.290Z,60.30
2018-03-25T02:35:30.075Z,56.17
2018-03-25T02:37:57.640Z,50.70
2018-03-25T02:40:25.177Z,60.63
2018-03-25T02:42:52.744Z,52.93
2018-03-25T02:45:20.275Z,44.33
2018-03-25T02:47:47.835Z,47.03
2018-03-25T02:50:15.386Z,47.60
2018-03-25T02:52:42.947Z,50.40
2018-03-25T02:55:10.482Z,54.20
2018-03-25T02:57:38.824Z,62.77
2018-03-25T03:00:06.360Z,58.77
2018-03-25T03:02:33.925Z,59.27
2018-03-25T03:05:01.481Z,55.63
2018-03-25T03:07:29.009Z,62.70
2018-03-25T03:09:56.588Z,58.20
2018-03-25T03:12:24.138Z,48.00
2018-03-25T03:14:51.684Z,49.10
2018-03-25T03:17:19.228Z,47.50
2018-03-25T03:19:47.543Z,45.43
2018-03-25T03:22:15.078Z,53.57
2018-03-25T03:24:42.625Z,52.07
2018-03-25T03:27:10.913Z,46.30
2018-03-25T03:29:38.488Z,47.33
2018-03-25T03:32:06.776Z,46.30
2018-03-25T03:34:34.344Z,47.97
2018-03-25T03:37:01.877Z,54.40
2018-03-25T03:39:29.424Z,50.70
2018-03-25T03:41:56.956Z,49.00
2018-03-25T03:44:25.274Z,45.33
2018-03-25T03:46:52.810Z,45.17
2018-03-25T03:49:20.356Z,50.73
2018-03-25T03:51:47.886Z,51.93
2018-03-25T03:54:15.444Z,46.10
2018-03-25T03:56:42.988Z,54.77
2018-03-25T03:59:10.543Z,52.50
2018-03-25T04:01:38.073Z,50.53
2018-03-25T04:04:05.626Z,55.17
2018-03-25T04:06:33.178Z,53.80
2018-03-25T04:09:00.769Z,54.07
2018-03-25T04:11:28.276Z,51.40
2018-03-25T04:13:56.621Z,61.33
2018-03-25T04:16:24.141Z,61.87
2018-03-25T04:18:51.683Z,61.40
2018-03-25T04:21:19.969Z,57.53
2018-03-25T04:23:47.559Z,52.37
2018-03-25T04:26:15.093Z,55.47
2018-03-25T04:28:42.636Z,62.57
2018-03-25T04:31:10.183Z,56.33
2018-03-25T04:33:38.494Z,59.70
2018-03-25T04:36:06.050Z,57.53
2018-03-25T04:38:33.593Z,55.80
2018-03-25T04:41:01.138Z,67.93
2018-03-25T04:43:29.469Z,59.40
2018-03-25T04:45:57.006Z,55.67
2018-03-25T04:48:24.552Z,55.50
2018-03-25T04:50:52.084Z,61.33
2018-03-25T04:53:20.405Z,55.90
2018-03-25T04:55:47.934Z,47.13
2018-03-25T04:58:15.492Z,51.13
2018-03-25T05:00:43.056Z,52.73
2018-03-25T05:03:12.567Z,59.63
2018-03-25T05:05:40.117Z,53.80
2018-03-25T05:08:07.646Z,53.33
2018-03-25T05:10:35.208Z,56.20
2018-03-25T05:13:03.510Z,58.23
2018-03-25T05:15:31.087Z,56.20
2018-03-25T05:17:58.629Z,57.13
2018-03-25T05:20:26.196Z,49.83
2018-03-25T05:22:53.737Z,56.23
2018-03-25T05:25:22.045Z,68.57
2018-03-25T05:27:49.591Z,70.33
2018-03-25T05:30:17.185Z,57.30
2018-03-25T05:32:44.786Z,52.50
2018-03-25T05:35:13.172Z,51.80
2018-03-25T05:37:40.729Z,64.60
2018-03-25T05:40:08.333Z,58.63
2018-03-25T05:42:35.876Z,58.47
2018-03-25T05:45:03.449Z,47.53
2018-03-25T05:47:31.007Z,52.63
2018-03-25T05:49:58.553Z,60.73
2018-03-25T05:52:26.101Z,60.00
2018-03-25T05:54:53.654Z,56.93
2018-03-25T05:57:21.200Z,52.73
2018-03-25T05:59:48.758Z,53.93
2018-03-25T06:02:17.053Z,52.93
2018-03-25T06:04:44.610Z,49.60
2018-03-25T06:07:12.140Z,51.10
2018-03-25T06:09:40.459Z,53.17
2018-03-25T06:12:07.994Z,49.93
2018-03-25T06:14:35.544Z,49.97
2018-03-25T06:17:03.086Z,53.23
2018-03-25T06:19:31.404Z,48.93
2018-03-25T06:21:58.964Z,43.20
2018-03-25T06:24:26.535Z,36.60
2018-03-25T06:26:54.089Z,41.77
2018-03-25T06:29:21.661Z,36.73
2018-03-25T06:31:49.212Z,37.43
2018-03-25T06:34:16.781Z,39.03
2018-03-25T06:36:44.325Z,43.17
2018-03-25T06:39:11.901Z,39.23
2018-03-25T06:41:39.462Z,37.63
2018-03-25T06:44:07.030Z,32.90
2018-03-25T06:46:34.580Z,38.17
2018-03-25T06:49:02.154Z,43.90
2018-03-25T06:51:29.707Z,37.00
2018-03-25T06:53:57.317Z,33.10
2018-03-25T06:56:24.871Z,41.37
2018-03-25T06:58:52.414Z,32.23
2018-03-25T07:01:20.762Z,31.80
2018-03-25T07:03:48.314Z,37.43
2018-03-25T07:06:15.920Z,34.20
2018-03-25T07:08:43.516Z,36.70
2018-03-25T07:11:11.069Z,33.97
2018-03-25T07:13:38.613Z,34.93
2018-03-25T07:16:06.186Z,33.50
2018-03-25T07:18:34.514Z,35.30
2018-03-25T07:21:02.856Z,29.67
2018-03-25T07:23:30.399Z,30.73
2018-03-25T07:25:57.965Z,30.83
2018-03-25T07:28:25.539Z,27.87
2018-03-25T07:30:53.104Z,34.57
2018-03-25T07:33:24.381Z,35.77
2018-03-25T07:35:52.219Z,31.77
2018-03-25T07:38:19.801Z,32.70
2018-03-25T07:40:47.361Z,35.97
2018-03-25T07:43:15.659Z,36.77
2018-03-25T07:45:43.205Z,33.53
2018-03-25T07:48:10.741Z,35.33
2018-03-25T07:50:39.062Z,33.57
2018-03-25T07:53:06.590Z,34.67
2018-03-25T07:55:34.897Z,37.77
2018-03-25T07:58:02.429Z,36.77
2018-03-25T08:00:30.741Z,33.40
2018-03-25T08:02:58.309Z,32.33
2018-03-25T08:05:25.858Z,32.73
2018-03-25T08:07:53.387Z,32.33
2018-03-25T08:10:20.948Z,32.43
2018-03-25T08:12:48.468Z,33.13
2018-03-25T08:15:16.798Z,30.80
2018-03-25T08:17:44.321Z,27.40
2018-03-25T08:20:12.632Z,30.15
2018-03-25T08:22:40.201Z,26.00
2018-03-25T08:25:07.769Z,28.92
2018-03-25T08:27:35.292Z,28.77
2018-03-25T08:30:02.890Z,29.30
2018-03-25T08:32:30.420Z,27.60
2018-03-25T08:34:57.941Z,27.87
2018-03-25T08:37:25.489Z,29.83
2018-03-25T08:39:53.007Z,27.42
2018-03-25T08:42:20.556Z,28.85
2018-03-25T08:44:48.087Z,27.75
2018-03-25T08:47:16.401Z,28.15
2018-03-25T08:49:43.927Z,26.52
2018-03-25T08:52:11.506Z,27.33
2018-03-25T08:54:39.031Z,27.55
2018-03-25T08:57:07.359Z,26.23
2018-03-25T08:59:35.710Z,28.80
2018-03-25T09:02:03.265Z,27.73
2018-03-25T09:04:30.797Z,26.30
2018-03-25T09:06:59.113Z,28.75
2018-03-25T09:09:26.683Z,28.65
2018-03-25T09:11:54.243Z,26.85
2018-03-25T09:14:21.781Z,30.33
2018-03-25T09:16:49.341Z,29.37
2018-03-25T09:19:16.871Z,28.95
2018-03-25T09:21:45.305Z,30.02
2018-03-25T09:24:12.852Z,28.83
2018-03-25T09:26:40.415Z,27.23
2018-03-25T09:29:07.969Z,29.87
2018-03-25T09:31:35.518Z,30.55
2018-03-25T09:34:03.058Z,30.48
2018-03-25T09:36:31.434Z,31.55
2018-03-25T09:38:59.046Z,30.02
2018-03-25T09:41:26.608Z,32.03
2018-03-25T09:43:54.150Z,27.92
2018-03-25T09:46:21.716Z,31.67
2018-03-25T09:48:49.254Z,29.30
2018-03-25T09:51:17.637Z,32.60
2018-03-25T09:53:45.169Z,29.98
2018-03-25T09:56:12.741Z,30.30
2018-03-25T09:58:40.319Z,28.83
2018-03-25T10:01:13.425Z,29.85
2018-03-25T10:03:40.961Z,27.52
2018-03-25T10:06:08.513Z,31.45
2018-03-25T10:08:36.053Z,27.55
2018-03-25T10:11:03.617Z,27.45
2018-03-25T10:13:31.169Z,28.77
2018-03-25T10:15:58.725Z,29.75
2018-03-25T10:18:26.267Z,30.88
2018-03-25T10:20:54.569Z,31.27
2018-03-25T10:23:22.116Z,29.75
2018-03-25T10:25:50.490Z,28.50
2018-03-25T10:28:18.047Z,30.67
2018-03-25T10:30:46.349Z,31.87
2018-03-25T10:33:13.894Z,31.05
2018-03-25T10:35:41.421Z,28.05
2018-03-25T10:38:08.973Z,31.58
2018-03-25T10:40:36.506Z,32.35
2018-03-25T10:43:04.062Z,31.40
2018-03-25T10:45:31.588Z,32.25
2018-03-25T10:47:59.145Z,30.67
2018-03-25T10:50:26.676Z,30.58
2018-03-25T10:52:54.999Z,31.42
2018-03-25T10:55:23.283Z,29.08
2018-03-25T10:57:50.824Z,26.23
2018-03-25T11:00:19.116Z,29.37
2018-03-25T11:02:46.656Z,28.98
2018-03-25T11:05:14.185Z,29.45
2018-03-25T11:07:42.497Z,28.45
2018-03-25T11:10:10.035Z,29.55
2018-03-25T11:12:37.596Z,27.35
2018-03-25T11:15:05.133Z,30.37
2018-03-25T11:17:33.448Z,29.90
2018-03-25T11:20:00.994Z,29.85
2018-03-25T11:22:28.544Z,28.83
2018-03-25T11:24:56.072Z,31.52
2018-03-25T11:27:23.620Z,25.50
2018-03-25T11:29:51.144Z,28.10
2018-03-25T11:32:18.689Z,25.27
2018-03-25T11:34:46.219Z,26.37
2018-03-25T11:37:14.543Z,26.08
2018-03-25T11:39:42.082Z,32.05
2018-03-25T11:42:09.632Z,29.70
2018-03-25T11:44:37.163Z,24.98
2018-03-25T11:47:04.699Z,24.52
2018-03-25T11:49:32.230Z,23.50
2018-03-25T11:51:59.768Z,24.15
2018-03-25T11:54:27.296Z,25.23
2018-03-25T11:56:54.850Z,26.08
2018-03-25T11:59:22.381Z,24.12
2018-03-25T12:01:50.801Z,25.35
2018-03-25T12:04:19.101Z,24.92
2018-03-25T12:06:46.657Z,25.23
2018-03-25T12:09:14.184Z,24.10
2018-03-25T12:11:42.497Z,24.48
2018-03-25T12:14:10.050Z,27.08
2018-03-25T12:16:37.597Z,24.50
2018-03-25T12:19:05.138Z,27.20
2018-03-25T12:21:33.533Z,27.95
2018-03-25T12:24:01.075Z,27.25
2018-03-25T12:26:29.425Z,24.58
2018-03-25T12:28:56.972Z,25.48
2018-03-25T12:31:24.492Z,27.00
2018-03-25T12:33:52.038Z,22.35
2018-03-25T12:36:20.341Z,23.77
2018-03-25T12:38:47.893Z,23.42
2018-03-25T12:41:15.425Z,22.52
2018-03-25T12:43:43.738Z,23.02
2018-03-25T12:46:11.285Z,26.30
2018-03-25T12:48:38.827Z,21.08
2018-03-25T12:51:07.122Z,22.23
2018-03-25T12:53:34.677Z,24.92
2018-03-25T12:56:02.209Z,25.60
2018-03-25T12:58:30.531Z,24.55
2018-03-25T13:00:58.065Z,24.40
2018-03-25T13:03:25.614Z,26.37
2018-03-25T13:05:53.145Z,23.90
2018-03-25T13:08:20.705Z,23.90
2018-03-25T13:10:48.248Z,20.42
2018-03-25T13:13:15.804Z,20.30
2018-03-25T13:15:43.373Z,22.10
2018-03-25T13:18:10.919Z,22.42
2018-03-25T13:20:38.452Z,21.80
2018-03-25T13:23:06.042Z,20.37
2018-03-25T13:25:33.585Z,22.77
2018-03-25T13:28:01.139Z,21.37
2018-03-25T13:30:28.673Z,20.80
2018-03-25T13:32:56.226Z,21.77
2018-03-25T13:35:23.752Z,22.50
2018-03-25T13:37:51.319Z,23.92
2018-03-25T13:40:19.618Z,21.83
2018-03-25T13:42:47.173Z,23.85
2018-03-25T13:45:14.736Z,23.70
2018-03-25T13:47:42.289Z,21.67
2018-03-25T13:50:09.820Z,20.65
2018-03-25T13:52:38.163Z,22.37
2018-03-25T13:55:05.700Z,20.45
2018-03-25T13:57:33.249Z,20.88
2018-03-25T14:00:00.785Z,22.10
2018-03-25T14:02:29.102Z,20.75
2018-03-25T14:04:56.637Z,21.85
2018-03-25T14:07:24.184Z,21.15
2018-03-25T14:09:52.494Z,20.00
2018-03-25T14:12:20.055Z,18.60
2018-03-25T14:14:47.584Z,21.30
2018-03-25T14:17:15.142Z,19.67
2018-03-25T14:19:42.672Z,21.00
2018-03-25T14:22:10.196Z,21.05
2018-03-25T14:24:37.745Z,19.65
2018-03-25T14:27:05.282Z,26.17
2018-03-25T14:29:33.052Z,23.80
2018-03-25T14:32:00.577Z,22.52
2018-03-25T14:34:28.129Z,22.52
2018-03-25T14:36:55.666Z,19.90
2018-03-25T14:39:23.230Z,19.52
2018-03-25T14:41:50.785Z,25.83
2018-03-25T14:44:18.333Z,21.37
2018-03-25T14:46:45.866Z,22.73
2018-03-25T14:49:13.417Z,21.73
2018-03-25T14:51:40.947Z,22.47
2018-03-25T14:54:09.274Z,23.33
2018-03-25T14:56:36.818Z,22.43
2018-03-25T14:59:04.359Z,23.30
2018-03-25T15:01:31.910Z,23.80
2018-03-25T15:04:00.250Z,24.40
2018-03-25T15:06:27.777Z,27.83
2018-03-25T15:08:55.339Z,22.40
2018-03-25T15:11:22.868Z,20.60
2018-03-25T15:13:50.414Z,21.40
2018-03-25T15:16:18.716Z,22.73
2018-03-25T15:18:46.281Z,22.10
2018-03-25T15:21:13.809Z,23.00
2018-03-25T15:23:42.134Z,21.70
2018-03-25T15:26:09.674Z,24.33
2018-03-25T15:28:37.448Z,21.77
2018-03-25T15:31:04.982Z,17.83
2018-03-25T15:33:32.551Z,20.67
2018-03-25T15:36:00.077Z,25.53
2018-03-25T15:38:28.394Z,25.07
2018-03-25T15:40:55.925Z,21.80
2018-03-25T15:43:23.478Z,22.03
2018-03-25T15:45:51.774Z,21.47
2018-03-25T15:48:19.315Z,21.30
2018-03-25T15:50:47.612Z,25.37
2018-03-25T15:53:21.512Z,22.80
2018-03-25T15:55:49.032Z,20.23
2018-03-25T15:58:16.597Z,19.87
2018-03-25T16:00:44.127Z,19.40
2018-03-25T16:03:11.680Z,22.63
2018-03-25T16:05:39.206Z,20.40
2018-03-25T16:08:06.768Z,23.00
2018-03-25T16:10:34.296Z,19.87
2018-03-25T16:13:02.609Z,19.07
2018-03-25T16:15:30.139Z,20.10
2018-03-25T16:17:57.698Z,24.33
2018-03-25T16:20:25.994Z,23.33
2018-03-25T16:22:53.561Z,21.50
2018-03-25T16:25:21.088Z,22.00
2018-03-25T16:27:49.388Z,23.97
2018-03-25T16:30:16.947Z,23.20
2018-03-25T16:32:44.478Z,23.33
2018-03-25T16:35:12.790Z,23.87
2018-03-25T16:37:40.331Z,25.57
2018-03-25T16:40:07.887Z,26.33
2018-03-25T16:42:35.649Z,27.13
2018-03-25T16:45:03.207Z,32.00
2018-03-25T16:47:30.736Z,30.63
2018-03-25T16:49:58.302Z,29.57
2018-03-25T16:52:26.608Z,25.60
2018-03-25T16:54:54.157Z,29.53
2018-03-25T16:57:21.695Z,26.30
2018-03-25T16:59:50.021Z,23.17
2018-03-25T17:02:17.564Z,21.10
2018-03-25T17:04:45.122Z,22.00
2018-03-25T17:07:12.669Z,21.47
2018-03-25T17:09:40.221Z,29.13
2018-03-25T17:12:07.761Z,24.83
2018-03-25T17:14:36.086Z,20.93
2018-03-25T17:17:23.628Z,27.90
2018-03-25T17:19:51.185Z,35.03
2018-03-25T17:22:18.718Z,34.20
2018-03-25T17:24:46.305Z,46.13
2018-03-25T17:27:13.889Z,33.87
2018-03-25T17:29:41.445Z,17.87
2018-03-25T17:32:08.978Z,18.67
2018-03-25T17:34:36.569Z,21.83
2018-03-25T17:37:04.120Z,21.57
2018-03-25T17:39:31.657Z,16.93
2018-03-25T17:41:59.190Z,21.40
2018-03-25T17:44:26.726Z,19.17
2018-03-25T17:46:55.025Z,21.20
2018-03-25T17:49:22.602Z,20.07
2018-03-25T17:51:50.169Z,19.80
2018-03-25T17:54:17.721Z,19.17
2018-03-25T17:56:45.252Z,21.60
2018-03-25T17:59:12.825Z,22.17
2018-03-25T18:01:40.344Z,27.03
2018-03-25T18:04:08.649Z,26.20
2018-03-25T18:06:36.208Z,28.67
2018-03-25T18:09:03.761Z,25.17
2018-03-25T18:11:31.296Z,33.80
2018-03-25T18:13:59.618Z,30.23
2018-03-25T18:16:27.145Z,30.67
2018-03-25T18:18:55.441Z,33.23
2018-03-25T18:21:22.961Z,29.53
2018-03-25T18:23:51.316Z,34.00
2018-03-25T18:26:18.873Z,29.10
2018-03-25T18:28:46.453Z,32.50
2018-03-25T18:31:14.782Z,32.07
2018-03-25T18:33:42.374Z,33.33
2018-03-25T18:36:09.921Z,35.07
2018-03-25T18:38:37.441Z,36.50
2018-03-25T18:41:04.991Z,34.47
2018-03-25T18:43:32.550Z,36.70
2018-03-25T18:46:00.101Z,30.20
2018-03-25T18:48:27.624Z,26.90
2018-03-25T18:50:55.202Z,28.83
2018-03-25T18:53:23.510Z,31.70
2018-03-25T18:55:51.045Z,29.87
2018-03-25T18:58:19.341Z,27.30
2018-03-25T19:00:46.921Z,30.30
2018-03-25T19:03:16.388Z,24.30
2018-03-25T19:05:44.690Z,26.03
2018-03-25T19:08:12.220Z,27.20
2018-03-25T19:10:40.525Z,23.83
2018-03-25T19:13:08.809Z,24.10
2018-03-25T19:15:36.353Z,21.70
2018-03-25T19:18:03.873Z,27.50
2018-03-25T19:20:31.436Z,29.00
2018-03-25T19:22:59.737Z,25.50
2018-03-25T19:25:27.282Z,29.40
2018-03-25T19:27:54.834Z,31.43
2018-03-25T19:30:23.140Z,29.17
2018-03-25T19:33:04.948Z,33.87
2018-03-25T19:35:32.491Z,29.27
2018-03-25T19:38:00.022Z,29.47
2018-03-25T19:40:27.569Z,28.53
2018-03-25T19:42:55.851Z,24.23
2018-03-25T19:45:24.171Z,33.03
2018-03-25T19:47:51.711Z,33.53
2018-03-25T19:50:19.264Z,28.20
2018-03-25T19:52:46.815Z,32.07
2018-03-25T19:55:14.356Z,32.57
2018-03-25T19:57:42.718Z,36.07
2018-03-25T20:00:10.230Z,36.47
2018-03-25T20:02:37.801Z,34.77
2018-03-25T20:05:05.382Z,30.87
2018-03-25T20:07:32.966Z,31.00
2018-03-25T20:10:01.323Z,32.57
2018-03-25T20:12:28.864Z,31.30
2018-03-25T20:14:56.468Z,34.57
2018-03-25T20:17:24.788Z,32.70
2018-03-25T20:19:52.348Z,31.57
2018-03-25T20:22:19.905Z,32.00
2018-03-25T20:24:47.534Z,30.27
2018-03-25T20:27:15.083Z,29.83
2018-03-25T20:29:42.661Z,35.87
2018-03-25T20:32:10.208Z,29.73
2018-03-25T20:34:37.781Z,36.60
2018-03-25T20:37:05.320Z,33.97
2018-03-25T20:39:32.900Z,33.10
2018-03-25T20:42:00.478Z,34.83
2018-03-25T20:44:28.077Z,35.33
2018-03-25T20:46:55.613Z,36.60
2018-03-25T20:49:24.020Z,33.90
2018-03-25T20:51:52.321Z,35.13
2018-03-25T20:54:19.868Z,35.10
2018-03-25T20:56:48.224Z,33.43
2018-03-25T20:59:15.825Z,33.70
2018-03-25T21:01:43.401Z,33.50
2018-03-25T21:04:10.939Z,31.70
2018-03-25T21:06:38.522Z,34.73
2018-03-25T21:09:06.048Z,37.90
2018-03-25T21:11:34.389Z,35.17
2018-03-25T21:14:01.930Z,32.13
2018-03-25T21:16:29.518Z,37.60
2018-03-25T21:18:57.812Z,32.93
2018-03-25T21:21:25.456Z,35.47
2018-03-25T21:23:53.004Z,30.90
2018-03-25T21:26:21.338Z,32.97
2018-03-25T21:28:48.886Z,33.33
2018-03-25T21:31:16.460Z,33.83
2018-03-25T21:33:44.015Z,32.77
2018-03-25T21:36:11.611Z,33.03
2018-03-25T21:38:39.193Z,33.33
2018-03-25T21:41:06.817Z,30.57
2018-03-25T21:43:34.347Z,33.03
2018-03-25T21:46:01.923Z,30.37
2018-03-25T21:48:29.479Z,29.40
2018-03-25T21:50:57.058Z,33.47
2018-03-25T21:53:24.625Z,37.57
2018-03-25T21:55:52.205Z,46.30
2018-03-25T21:58:20.611Z,35.30
2018-03-25T22:00:48.189Z,28.43
2018-03-25T22:03:15.769Z,34.83
2018-03-25T22:05:43.361Z,33.67
2018-03-25T22:08:10.906Z,32.47
2018-03-25T22:10:38.471Z,31.43
2018-03-25T22:13:06.009Z,31.70
2018-03-25T22:15:33.637Z,30.30
2018-03-25T22:18:01.222Z,34.73
2018-03-25T22:20:28.897Z,30.30
2018-03-25T22:22:56.489Z,32.23
2018-03-25T22:25:24.886Z,34.53
2018-03-25T22:27:52.448Z,34.47
2018-03-25T22:30:20.036Z,34.60
2018-03-25T22:32:47.641Z,37.77
2018-03-25T22:35:16.002Z,41.40
2018-03-25T22:37:43.539Z,43.90
2018-03-25T22:40:11.140Z,35.53
2018-03-25T22:42:39.467Z,34.77
2018-03-25T22:45:07.023Z,33.83
2018-03-25T22:47:34.710Z,35.67
2018-03-25T22:50:02.270Z,37.23
2018-03-25T22:52:29.896Z,37.20
2018-03-25T22:54:57.455Z,37.23
2018-03-25T22:57:25.013Z,40.30
2018-03-25T22:59:52.577Z,42.50
2018-03-25T23:02:20.145Z,48.07
2018-03-25T23:04:47.717Z,35.27
2018-03-25T23:07:15.301Z,33.23
2018-03-25T23:09:43.625Z,39.53
2018-03-25T23:12:11.246Z,36.30
2018-03-25T23:14:39.573Z,31.10
2018-03-25T23:17:07.165Z,33.03
2018-03-25T23:19:35.485Z,36.30
2018-03-25T23:22:03.878Z,30.57
2018-03-25T23:24:31.429Z,31.03
2018-03-25T23:26:59.014Z,30.23
2018-03-25T23:29:26.594Z,34.47
2018-03-25T23:31:54.239Z,38.00
2018-03-25T23:34:21.793Z,32.70
2018-03-25T23:36:49.368Z,36.90
2018-03-25T23:39:16.945Z,30.70
2018-03-25T23:41:44.526Z,38.33
2018-03-25T23:44:12.130Z,35.00
2018-03-25T23:46:39.705Z,37.90
2018-03-25T23:49:07.286Z,32.63
2018-03-25T23:51:35.647Z,35.87
2018-03-25T23:54:03.229Z,31.57
2018-03-25T23:56:30.865Z,32.80
2018-03-25T23:58:58.444Z,35.77
